Time;durP1;ratioP1;P1;durP2;ratioP2;P2;SDS_P1;SDS_P2;PMS_P1;PMS_P2;Temp;Humidity;BMP_temperature;BMP_pressure;BME280_temperature;BME280_humidity;BME280_pressure;Samples;Min_cycle;Max_cycle;Signal;HPM_P1;HPM_P2
2023/08/02 00:01:03;;;;;;;2.50;1.80;;;16.90;99.90;;;;;;5069856;28;20184;-71
2023/08/02 00:03:29;;;;;;;2.87;2.00;;;16.80;99.90;;;;;;5070133;28;20182;-72
2023/08/02 00:05:57;;;;;;;2.90;2.10;;;16.80;99.90;;;;;;5071570;28;20181;-72
2023/08/02 00:08:24;;;;;;;2.30;2.10;;;16.80;99.90;;;;;;5071295;28;20214;-72
2023/08/02 00:10:49;;;;;;;2.77;2.13;;;16.80;99.90;;;;;;5069889;28;20410;-71
2023/08/02 00:13:15;;;;;;;2.33;1.90;;;16.70;99.90;;;;;;5071401;28;20416;-71
2023/08/02 00:15:41;;;;;;;5.20;2.43;;;16.70;99.90;;;;;;5066591;28;20191;-71
2023/08/02 00:18:07;;;;;;;7.67;2.60;;;16.70;99.90;;;;;;5059762;28;20580;-71
2023/08/02 00:20:33;;;;;;;3.57;1.80;;;16.70;99.90;;;;;;5066528;28;20876;-70
2023/08/02 00:22:59;;;;;;;3.30;2.23;;;16.60;99.90;;;;;;5069141;28;20440;-71
2023/08/02 00:25:24;;;;;;;4.90;2.30;;;16.60;99.90;;;;;;5070936;28;20185;-71
2023/08/02 00:27:50;;;;;;;3.10;2.30;;;16.60;99.90;;;;;;5065274;28;20239;-72
2023/08/02 00:30:16;;;;;;;3.27;2.87;;;16.60;99.90;;;;;;5069983;28;20546;-71
2023/08/02 00:32:45;;;;;;;2.43;2.13;;;16.50;99.90;;;;;;5070978;28;20181;-71
2023/08/02 00:35:11;;;;;;;3.60;2.30;;;16.50;99.90;;;;;;5071537;28;20519;-71
2023/08/02 00:37:37;;;;;;;2.93;2.47;;;16.50;99.90;;;;;;5071309;28;20496;-72
2023/08/02 00:40:03;;;;;;;4.93;2.70;;;16.50;99.90;;;;;;5074664;28;20204;-72
2023/08/02 00:42:29;;;;;;;4.80;2.07;;;16.50;99.90;;;;;;5072145;28;20224;-71
2023/08/02 00:44:55;;;;;;;2.23;1.73;;;16.50;99.90;;;;;;5066314;28;20445;-71
2023/08/02 00:47:22;;;;;;;2.73;1.80;;;16.50;99.90;;;;;;5060866;28;20437;-71
2023/08/02 00:49:47;;;;;;;2.73;1.80;;;16.50;99.90;;;;;;5073108;28;20437;-71
2023/08/02 00:52:13;;;;;;;2.77;1.90;;;16.50;99.90;;;;;;5074347;28;20416;-71
2023/08/02 00:54:41;;;;;;;3.30;2.37;;;16.40;99.90;;;;;;5074325;28;20173;-70
2023/08/02 00:57:08;;;;;;;2.63;2.23;;;16.40;99.90;;;;;;5073870;28;20181;-70
2023/08/02 00:59:42;;;;;;;2.93;2.00;;;16.40;99.90;;;;;;5074036;28;20517;-71
2023/08/02 01:02:08;;;;;;;2.37;2.17;;;16.30;99.90;;;;;;5065836;28;20948;-70
2023/08/02 01:04:35;;;;;;;2.90;1.87;;;16.30;99.90;;;;;;5058468;28;20425;-71
2023/08/02 01:07:22;;;;;;;2.83;2.20;;;16.30;99.90;;;;;;5057166;28;20482;-72
2023/08/02 01:10:09;;;;;;;3.73;2.20;;;16.30;99.90;;;;;;5067020;28;20477;-71
2023/08/02 01:12:36;;;;;;;2.70;2.37;;;16.30;99.90;;;;;;5072230;28;20404;-71
2023/08/02 01:15:03;;;;;;;5.03;2.20;;;16.30;99.90;;;;;;5074144;28;20433;-71
2023/08/02 01:17:30;;;;;;;3.20;1.80;;;16.30;99.90;;;;;;5073999;28;20418;-71
2023/08/02 01:20:06;;;;;;;4.13;1.80;;;16.30;99.90;;;;;;5074177;28;20763;-71
2023/08/02 01:22:32;;;;;;;2.40;2.00;;;16.30;99.90;;;;;;5064252;28;20408;-70
2023/08/02 01:25:00;;;;;;;2.23;2.00;;;16.30;99.90;;;;;;5066003;28;20409;-71
2023/08/02 01:27:34;;;;;;;3.07;2.53;;;16.30;99.90;;;;;;5072838;28;20227;-71
2023/08/02 01:30:01;;;;;;;1.50;1.40;;;16.40;99.90;;;;;;5073791;28;20811;-71
2023/08/02 01:32:27;;;;;;;2.10;1.73;;;16.30;99.90;;;;;;5073867;28;20544;-71
2023/08/02 01:34:53;;;;;;;2.67;1.97;;;16.30;99.90;;;;;;5055870;28;20438;-71
2023/08/02 01:37:20;;;;;;;2.83;2.00;;;16.30;99.90;;;;;;5073730;28;20408;-72
2023/08/02 01:39:45;;;;;;;3.67;3.07;;;16.30;99.90;;;;;;5070391;28;20531;-72
2023/08/02 01:42:11;;;;;;;5.97;2.17;;;16.30;99.90;;;;;;5050053;28;20515;-70
2023/08/02 01:44:37;;;;;;;5.00;1.70;;;16.30;99.90;;;;;;5049044;28;20178;-70
2023/08/02 01:47:03;;;;;;;3.07;2.87;;;16.30;99.90;;;;;;5061523;28;20437;-70
2023/08/02 01:49:28;;;;;;;3.20;1.90;;;16.40;99.90;;;;;;5071552;28;20273;-70
2023/08/02 01:51:54;;;;;;;5.23;1.97;;;16.40;99.90;;;;;;5071146;28;20183;-70
2023/08/02 01:54:19;;;;;;;2.50;1.80;;;16.40;99.90;;;;;;5072834;28;20718;-70
2023/08/02 01:56:45;;;;;;;3.10;2.03;;;16.40;99.90;;;;;;5073584;28;20204;-71
2023/08/02 01:59:12;;;;;;;4.10;2.00;;;16.40;99.90;;;;;;5073006;28;20683;-71
2023/08/02 02:01:38;;;;;;;2.90;1.90;;;16.50;99.90;;;;;;5073030;28;20178;-71
2023/08/02 02:04:04;;;;;;;4.70;2.00;;;16.50;99.90;;;;;;5072411;28;20417;-71
2023/08/02 02:06:29;;;;;;;5.00;2.33;;;16.50;99.90;;;;;;5052477;28;21057;-71
2023/08/02 02:08:55;;;;;;;2.00;1.87;;;16.60;99.90;;;;;;5058642;28;20251;-71
2023/08/02 02:11:21;;;;;;;3.27;2.67;;;16.50;99.90;;;;;;5051380;28;20215;-72
2023/08/02 02:13:46;;;;;;;2.77;2.17;;;16.50;99.90;;;;;;5060077;28;20191;-71
2023/08/02 02:16:12;;;;;;;4.23;2.10;;;16.60;99.90;;;;;;5049723;28;20584;-72
2023/08/02 02:18:38;;;;;;;2.37;2.07;;;16.60;99.90;;;;;;5068660;28;20242;-71
2023/08/02 02:21:03;;;;;;;3.53;2.10;;;16.50;99.90;;;;;;5054833;28;20185;-71
2023/08/02 02:23:29;;;;;;;3.10;2.10;;;16.60;99.90;;;;;;5066585;28;20169;-71
2023/08/02 02:25:55;;;;;;;2.93;1.97;;;16.60;99.90;;;;;;5072470;28;20177;-71
2023/08/02 02:28:20;;;;;;;2.97;2.30;;;16.60;99.90;;;;;;5072515;28;20589;-71
2023/08/02 02:30:48;;;;;;;2.20;2.00;;;16.50;99.90;;;;;;5072448;28;20914;-71
2023/08/02 02:33:13;;;;;;;2.43;1.67;;;16.50;99.90;;;;;;5072864;28;20165;-71
2023/08/02 02:35:39;;;;;;;2.53;2.00;;;16.50;99.90;;;;;;5072497;28;20784;-70
2023/08/02 02:38:04;;;;;;;2.70;2.00;;;16.50;99.90;;;;;;5064603;28;20198;-71
2023/08/02 02:40:30;;;;;;;3.90;2.23;;;16.50;99.90;;;;;;5052738;28;20182;-70
2023/08/02 02:42:56;;;;;;;4.30;2.60;;;16.40;99.90;;;;;;5070563;28;20185;-70
2023/08/02 02:45:21;;;;;;;4.93;2.20;;;16.40;99.90;;;;;;5072003;28;20843;-70
2023/08/02 02:47:47;;;;;;;3.80;2.10;;;16.40;99.90;;;;;;5072131;28;20201;-71
2023/08/02 02:50:12;;;;;;;2.63;1.70;;;16.40;99.90;;;;;;5072703;28;20228;-70
2023/08/02 02:52:40;;;;;;;3.10;2.27;;;16.40;99.90;;;;;;5072380;28;20579;-70
2023/08/02 02:55:07;;;;;;;3.60;2.20;;;16.30;99.90;;;;;;5072874;28;20165;-71
2023/08/02 02:57:33;;;;;;;2.77;2.20;;;16.30;99.90;;;;;;5054313;28;20905;-71
2023/08/02 02:59:58;;;;;;;3.67;2.80;;;16.30;99.90;;;;;;5070029;28;20485;-71
2023/08/02 03:02:24;;;;;;;4.13;2.50;;;16.30;99.90;;;;;;5072229;28;20549;-71
2023/08/02 03:04:49;;;;;;;2.70;2.17;;;16.20;99.90;;;;;;5071243;28;20173;-71
2023/08/02 03:07:15;;;;;;;3.73;2.90;;;16.20;99.90;;;;;;5071690;28;20543;-71
2023/08/02 03:09:41;;;;;;;2.40;2.20;;;16.20;99.90;;;;;;5071508;28;20199;-70
2023/08/02 03:12:07;;;;;;;4.60;2.80;;;16.10;99.90;;;;;;5072044;28;20170;-70
2023/08/02 03:14:33;;;;;;;5.63;2.40;;;16.10;99.90;;;;;;5040931;28;20181;-70
2023/08/02 03:16:58;;;;;;;3.80;2.37;;;16.00;99.90;;;;;;5057886;28;20491;-70
2023/08/02 03:19:24;;;;;;;4.10;2.30;;;16.00;99.90;;;;;;5069834;28;20680;-70
2023/08/02 03:21:49;;;;;;;3.93;2.53;;;15.90;99.90;;;;;;5068460;28;20196;-70
2023/08/02 03:24:15;;;;;;;3.40;2.40;;;15.90;99.90;;;;;;5071772;28;20542;-70
2023/08/02 03:26:41;;;;;;;4.43;2.33;;;15.90;99.90;;;;;;5071345;28;20257;-70
2023/08/02 03:29:06;;;;;;;3.03;2.00;;;15.90;99.90;;;;;;5071130;28;20724;-70
2023/08/02 03:31:32;;;;;;;4.80;2.87;;;15.90;99.90;;;;;;5071786;28;20188;-71
2023/08/02 03:33:57;;;;;;;3.20;2.37;;;15.90;99.90;;;;;;5053538;28;20180;-70
2023/08/02 03:36:23;;;;;;;6.30;2.33;;;15.90;99.90;;;;;;5066523;28;20161;-70
2023/08/02 03:38:48;;;;;;;3.40;2.60;;;15.90;99.90;;;;;;5071052;28;20197;-70
2023/08/02 03:41:14;;;;;;;5.33;3.00;;;15.90;99.90;;;;;;5071656;28;20601;-70
2023/08/02 03:43:40;;;;;;;4.60;2.73;;;15.90;99.90;;;;;;5071612;28;20182;-72
2023/08/02 03:46:06;;;;;;;4.00;2.90;;;15.90;99.90;;;;;;5073614;28;20176;-71
2023/08/02 03:48:32;;;;;;;2.77;2.30;;;15.90;99.90;;;;;;5074306;28;20228;-71
2023/08/02 03:50:58;;;;;;;7.50;3.37;;;16.00;99.90;;;;;;5081721;28;20403;-71
2023/08/02 03:53:26;;;;;;;6.77;3.57;;;16.00;99.90;;;;;;5062837;28;20249;-70
2023/08/02 03:55:52;;;;;;;3.13;2.90;;;16.00;99.90;;;;;;5047234;28;20494;-70
2023/08/02 03:58:17;;;;;;;3.33;2.67;;;16.10;99.90;;;;;;5058697;28;20960;-71
2023/08/02 04:00:43;;;;;;;3.20;2.70;;;16.10;99.90;;;;;;5069765;28;20173;-71
2023/08/02 04:03:08;;;;;;;3.50;3.20;;;16.10;99.90;;;;;;5067551;28;20176;-71
2023/08/02 04:05:34;;;;;;;3.63;3.27;;;16.10;99.90;;;;;;5062188;28;20266;-71
2023/08/02 04:07:59;;;;;;;3.23;2.93;;;16.20;99.90;;;;;;5057403;28;20201;-71
2023/08/02 04:10:25;;;;;;;5.43;2.60;;;16.20;99.90;;;;;;5056889;28;20200;-70
2023/08/02 04:12:51;;;;;;;3.00;2.80;;;16.20;99.90;;;;;;5070792;28;20620;-70
2023/08/02 04:15:17;;;;;;;3.67;3.07;;;16.20;99.90;;;;;;5045763;28;20203;-70
2023/08/02 04:17:43;;;;;;;3.70;2.60;;;16.20;99.90;;;;;;5073780;28;20586;-71
2023/08/02 04:20:09;;;;;;;3.07;2.77;;;16.20;99.90;;;;;;5075261;28;20404;-70
2023/08/02 04:22:34;;;;;;;4.30;2.40;;;16.20;99.90;;;;;;5075322;28;20172;-71
2023/08/02 04:25:00;;;;;;;3.23;2.97;;;16.10;99.90;;;;;;5075337;28;20929;-70
2023/08/02 04:27:26;;;;;;;3.50;2.83;;;16.20;99.90;;;;;;5066543;28;20231;-70
2023/08/02 04:29:51;;;;;;;5.37;3.00;;;16.20;99.90;;;;;;5067165;28;20629;-70
2023/08/02 04:32:17;;;;;;;4.90;3.30;;;16.10;99.90;;;;;;5074636;28;20225;-70
2023/08/02 04:34:42;;;;;;;5.40;3.03;;;16.20;99.90;;;;;;5073016;28;20258;-70
2023/08/02 04:37:08;;;;;;;3.30;3.00;;;16.20;99.90;;;;;;5073996;28;20182;-70
2023/08/02 04:39:33;;;;;;;7.17;2.50;;;16.20;99.90;;;;;;5072696;28;20205;-70
2023/08/02 04:42:02;;;;;;;3.20;2.90;;;16.20;99.90;;;;;;5094311;22;20236;-73
2023/08/02 04:44:28;;;;;;;5.23;3.27;;;16.20;99.90;;;;;;5061044;28;20177;-73
2023/08/02 04:46:53;;;;;;;3.03;2.53;;;16.20;99.90;;;;;;5075290;28;20847;-72
2023/08/02 04:49:19;;;;;;;3.83;2.63;;;16.20;99.90;;;;;;5068835;28;20502;-73
2023/08/02 04:51:45;;;;;;;4.20;2.60;;;16.30;99.90;;;;;;5057714;28;20721;-74
2023/08/02 04:54:10;;;;;;;5.77;3.73;;;16.30;99.90;;;;;;5047506;28;20197;-74
2023/08/02 04:56:38;;;;;;;3.50;3.00;;;16.30;99.90;;;;;;5065276;28;20205;-76
2023/08/02 04:59:05;;;;;;;4.93;2.90;;;16.40;99.90;;;;;;5057744;28;20237;-73
2023/08/02 05:01:31;;;;;;;3.13;2.43;;;16.40;99.90;;;;;;5076909;28;20434;-75
2023/08/02 05:03:57;;;;;;;5.57;2.83;;;16.40;99.90;;;;;;5059051;28;20427;-74
2023/08/02 05:06:23;;;;;;;2.90;2.67;;;16.40;99.90;;;;;;5048666;28;20497;-73
2023/08/02 05:08:49;;;;;;;4.57;3.63;;;16.30;99.90;;;;;;5047501;28;20924;-73
2023/08/02 05:11:15;;;;;;;3.27;2.97;;;16.40;99.90;;;;;;5072566;28;20161;-73
2023/08/02 05:13:40;;;;;;;3.13;2.80;;;16.40;99.90;;;;;;5061975;28;20428;-73
2023/08/02 05:16:13;;;;;;;5.20;3.30;;;16.40;99.90;;;;;;5079988;28;20521;-73
2023/08/02 05:18:39;;;;;;;5.10;3.00;;;16.40;99.90;;;;;;5067826;28;20200;-75
2023/08/02 05:21:12;;;;;;;7.03;3.23;;;16.50;99.90;;;;;;5068526;28;20449;-73
2023/08/02 05:23:39;;;;;;;4.03;3.63;;;16.40;99.90;;;;;;5070051;28;20901;-73
2023/08/02 05:26:06;;;;;;;3.40;3.10;;;16.50;99.90;;;;;;5083529;28;20411;-74
2023/08/02 05:28:31;;;;;;;4.40;3.13;;;16.50;99.90;;;;;;5071644;28;20464;-74
2023/08/02 05:30:57;;;;;;;5.77;4.83;;;16.60;99.90;;;;;;5054368;28;20431;-74
2023/08/02 05:33:23;;;;;;;3.00;2.47;;;16.60;99.90;;;;;;5062766;28;20183;-74
2023/08/02 05:35:48;;;;;;;3.47;3.17;;;16.50;99.90;;;;;;5053550;28;20228;-74
2023/08/02 05:38:14;;;;;;;2.70;2.50;;;16.60;99.90;;;;;;5055446;28;20189;-73
2023/08/02 05:40:40;;;;;;;5.40;2.57;;;16.80;99.90;;;;;;5054416;28;20170;-74
2023/08/02 05:43:06;;;;;;;4.40;2.67;;;16.80;99.90;;;;;;5054010;28;20212;-74
2023/08/02 05:45:32;;;;;;;3.53;3.20;;;16.80;99.90;;;;;;5054088;28;20174;-74
2023/08/02 05:47:58;;;;;;;2.80;2.50;;;16.80;99.90;;;;;;5036172;28;20450;-75
2023/08/02 05:50:24;;;;;;;4.43;3.00;;;17.00;99.90;;;;;;5031824;28;20493;-74
2023/08/02 05:52:49;;;;;;;4.10;3.40;;;17.10;99.90;;;;;;5050792;28;20440;-74
2023/08/02 05:55:15;;;;;;;3.70;2.70;;;17.30;99.90;;;;;;5052452;28;20171;-74
2023/08/02 05:57:41;;;;;;;5.27;2.77;;;17.40;99.90;;;;;;5053883;28;20545;-74
2023/08/02 06:00:08;;;;;;;7.50;3.97;;;17.50;99.90;;;;;;5052480;28;20439;-74
2023/08/02 06:02:34;;;;;;;3.00;2.43;;;17.80;99.90;;;;;;5054858;28;20187;-75
2023/08/02 06:05:00;;;;;;;3.97;2.97;;;17.70;99.90;;;;;;5062465;28;20440;-74
2023/08/02 06:07:26;;;;;;;4.47;3.67;;;17.60;99.90;;;;;;5065169;28;20402;-75
2023/08/02 06:09:51;;;;;;;3.53;2.37;;;17.90;99.90;;;;;;5054038;28;20168;-75
2023/08/02 06:12:17;;;;;;;5.10;3.10;;;18.30;99.90;;;;;;5070335;28;20689;-75
2023/08/02 06:14:43;;;;;;;3.83;2.87;;;18.60;99.90;;;;;;5066434;28;20179;-76
2023/08/02 06:17:08;;;;;;;3.60;2.37;;;18.70;99.90;;;;;;5067182;28;20644;-76
2023/08/02 06:19:34;;;;;;;3.57;2.27;;;18.80;99.90;;;;;;5061839;28;20212;-76
2023/08/02 06:21:59;;;;;;;3.50;2.37;;;18.80;99.90;;;;;;5069353;28;20238;-75
2023/08/02 06:24:25;;;;;;;3.23;2.83;;;18.90;99.90;;;;;;5052981;28;20174;-73
2023/08/02 06:26:51;;;;;;;3.30;2.57;;;18.70;99.90;;;;;;5053364;28;20183;-76
2023/08/02 06:29:16;;;;;;;2.53;1.97;;;19.00;99.90;;;;;;5056327;28;20245;-75
2023/08/02 06:31:42;;;;;;;4.00;2.40;;;18.90;99.90;;;;;;5056035;28;20819;-79
2023/08/02 06:34:08;;;;;;;4.20;2.10;;;19.60;99.90;;;;;;5071032;28;20278;-78
2023/08/02 06:36:34;;;;;;;2.50;2.10;;;20.10;99.90;;;;;;5072451;28;20219;-78
2023/08/02 06:39:00;;;;;;;5.67;2.07;;;20.20;99.90;;;;;;5073405;28;20203;-78
2023/08/02 06:41:25;;;;;;;1.73;1.50;;;20.30;99.90;;;;;;5054872;28;20965;-77
2023/08/02 06:43:51;;;;;;;3.20;2.10;;;20.30;99.90;;;;;;5055921;28;20274;-78
2023/08/02 06:46:17;;;;;;;2.10;1.83;;;20.50;99.90;;;;;;5075090;28;20178;-81
2023/08/02 06:48:42;;;;;;;4.00;2.80;;;20.80;99.90;;;;;;5075350;28;20275;-76
2023/08/02 06:51:11;;;;;;;3.20;2.40;;;20.70;99.90;;;;;;5063053;28;20629;-78
2023/08/02 06:53:37;;;;;;;2.87;1.73;;;20.60;99.90;;;;;;5050175;28;20205;-74
2023/08/02 06:56:11;;;;;;;3.63;2.40;;;21.30;99.90;;;;;;5057283;28;20457;-75
2023/08/02 06:58:37;;;;;;;5.00;1.93;;;21.80;99.90;;;;;;5050591;28;20273;-75
2023/08/02 07:01:11;;;;;;;2.07;1.80;;;21.90;99.90;;;;;;5049254;28;21018;-75
2023/08/02 07:03:36;;;;;;;2.70;1.90;;;22.70;99.90;;;;;;5050891;28;20262;-75
2023/08/02 07:06:08;;;;;;;5.13;1.93;;;23.30;99.90;;;;;;5052016;28;20496;-75
2023/08/02 07:08:33;;;;;;;4.13;2.03;;;23.30;99.90;;;;;;5062354;28;20613;-75
2023/08/02 07:10:59;;;;;;;2.30;1.93;;;23.60;99.90;;;;;;5065132;28;20447;-75
2023/08/02 07:13:24;;;;;;;4.13;2.13;;;24.30;99.90;;;;;;5063311;28;20178;-75
2023/08/02 07:15:50;;;;;;;2.23;1.80;;;24.40;99.90;;;;;;5047480;28;20167;-75
2023/08/02 07:18:15;;;;;;;2.90;1.63;;;24.60;99.90;;;;;;5050537;28;20583;-75
2023/08/02 07:20:41;;;;;;;3.27;1.73;;;23.80;99.90;;;;;;5051183;28;20538;-75
2023/08/02 07:23:07;;;;;;;4.43;1.90;;;24.30;99.90;;;;;;5049532;28;20199;-75
2023/08/02 07:25:32;;;;;;;2.50;1.30;;;24.70;99.90;;;;;;5050374;28;20301;-75
2023/08/02 07:27:58;;;;;;;2.57;1.50;;;25.00;99.90;;;;;;5051829;28;20661;-75
2023/08/02 07:30:23;;;;;;;3.47;2.00;;;25.50;99.90;;;;;;5050807;28;20175;-74
2023/08/02 07:32:49;;;;;;;4.97;2.03;;;24.20;99.90;;;;;;5051880;28;20194;-75
2023/08/02 07:35:15;;;;;;;5.17;2.23;;;24.00;99.90;;;;;;5051905;28;20250;-75
2023/08/02 07:37:40;;;;;;;3.50;1.87;;;24.20;99.90;;;;;;5052040;28;20413;-74
2023/08/02 07:40:06;;;;;;;2.07;1.47;;;25.30;99.90;;;;;;5048854;28;20187;-75
2023/08/02 07:42:32;;;;;;;1.73;1.30;;;25.10;99.90;;;;;;5050408;28;20244;-77
2023/08/02 07:45:03;;;;;;;2.77;1.70;;;25.60;99.90;;;;;;5051718;28;20171;-75
2023/08/02 07:47:28;;;;;;;3.40;1.50;;;25.20;99.90;;;;;;5051779;28;20280;-75
2023/08/02 07:49:54;;;;;;;3.07;1.80;;;25.00;99.90;;;;;;5033977;28;20899;-76
2023/08/02 07:52:19;;;;;;;2.70;1.63;;;26.00;99.90;;;;;;5051405;28;20190;-75
2023/08/02 07:54:45;;;;;;;1.50;1.40;;;25.30;99.90;;;;;;5051892;28;20167;-76
2023/08/02 07:57:11;;;;;;;12.90;3.63;;;25.30;99.90;;;;;;5049836;28;20660;-75
2023/08/02 07:59:36;;;;;;;6.43;1.73;;;25.10;99.90;;;;;;5048208;28;20189;-75
2023/08/02 08:02:02;;;;;;;3.03;1.67;;;24.30;99.90;;;;;;5048150;28;20189;-76
2023/08/02 08:04:28;;;;;;;4.90;1.90;;;24.60;99.90;;;;;;5056827;28;20320;-75
2023/08/02 08:06:54;;;;;;;4.00;1.53;;;25.30;99.90;;;;;;5050169;28;20202;-75
2023/08/02 08:09:23;;;;;;;2.93;2.33;;;24.80;99.90;;;;;;5051872;28;20240;-76
2023/08/02 08:11:49;;;;;;;3.23;1.60;;;23.90;99.90;;;;;;5055587;28;20922;-75
2023/08/02 08:14:15;;;;;;;3.13;1.37;;;25.20;99.90;;;;;;5053237;28;20440;-75
2023/08/02 08:16:41;;;;;;;3.67;1.70;;;25.70;99.90;;;;;;5065545;28;20907;-76
2023/08/02 08:19:06;;;;;;;2.73;1.50;;;24.80;99.90;;;;;;5071955;28;20173;-76
2023/08/02 08:21:32;;;;;;;2.90;1.40;;;24.40;99.90;;;;;;5060551;28;20455;-75
2023/08/02 08:23:58;;;;;;;5.07;1.60;;;24.40;99.90;;;;;;5051594;28;20178;-76
2023/08/02 08:26:23;;;;;;;2.43;1.37;;;24.50;99.90;;;;;;5066609;28;20567;-75
2023/08/02 08:28:49;;;;;;;1.73;1.27;;;23.70;99.90;;;;;;5071048;28;20197;-76
2023/08/02 08:31:15;;;;;;;1.73;1.33;;;23.70;99.90;;;;;;5071075;28;20176;-76
2023/08/02 08:33:40;;;;;;;2.60;1.30;;;23.90;99.90;;;;;;5071412;28;20173;-76
2023/08/02 08:36:13;;;;;;;2.67;1.50;;;23.80;99.90;;;;;;5072092;28;20182;-75
2023/08/02 08:38:39;;;;;;;3.00;1.60;;;24.70;99.90;;;;;;5071956;28;20169;-76
2023/08/02 08:41:06;;;;;;;2.97;1.57;;;24.70;99.90;;;;;;5067544;28;20435;-76
2023/08/02 08:43:33;;;;;;;4.70;2.97;;;25.20;99.90;;;;;;5045008;28;20186;-76
2023/08/02 08:46:00;;;;;;;3.10;1.50;;;25.00;99.90;;;;;;5070780;28;20490;-76
2023/08/02 08:48:26;;;;;;;3.87;1.83;;;25.20;99.90;;;;;;5071713;28;20460;-76
2023/08/02 08:50:54;;;;;;;2.73;1.57;;;25.90;99.90;;;;;;5072201;28;20412;-76
2023/08/02 08:53:31;;;;;;;2.00;1.20;;;25.20;99.90;;;;;;5053665;28;20429;-75
2023/08/02 08:55:58;;;;;;;4.33;1.37;;;25.00;99.90;;;;;;5052197;28;20790;-75
2023/08/02 08:58:24;;;;;;;2.80;1.50;;;25.10;99.90;;;;;;5049562;28;20460;-76
2023/08/02 09:00:51;;;;;;;1.73;1.37;;;24.40;99.90;;;;;;5049119;28;20518;-76
2023/08/02 09:03:16;;;;;;;2.20;1.10;;;24.60;99.90;;;;;;5049145;28;20518;-74
2023/08/02 09:05:43;;;;;;;2.00;1.27;;;24.20;99.90;;;;;;5054768;28;20436;-75
2023/08/02 09:08:08;;;;;;;1.73;1.53;;;23.50;99.90;;;;;;5036998;28;20198;-75
2023/08/02 09:10:35;;;;;;;9.07;2.07;;;22.80;99.90;;;;;;5054540;28;20814;-75
2023/08/02 09:13:00;;;;;;;1.20;1.10;;;22.80;99.90;;;;;;5071433;28;20190;-75
2023/08/02 09:15:26;;;;;;;4.63;2.07;;;23.20;99.90;;;;;;5074622;28;20407;-75
2023/08/02 09:17:53;;;;;;;2.67;1.60;;;23.20;99.90;;;;;;5072805;28;20169;-75
2023/08/02 09:20:23;;;;;;;2.00;1.50;;;23.30;99.90;;;;;;5053759;28;20192;-76
2023/08/02 09:22:50;;;;;;;1.87;1.40;;;23.60;99.90;;;;;;5054416;28;20478;-76
2023/08/02 09:25:27;;;;;;;1.77;1.60;;;24.60;99.90;;;;;;5052861;28;20465;-77
2023/08/02 09:27:54;;;;;;;2.97;1.17;;;24.90;99.90;;;;;;5052906;28;20494;-77
2023/08/02 09:30:25;;;;;;;2.43;1.43;;;24.80;99.90;;;;;;5054290;28;20409;-76
2023/08/02 09:33:01;;;;;;;2.10;1.37;;;24.70;99.90;;;;;;5054619;28;20475;-76
2023/08/02 09:35:27;;;;;;;1.73;1.40;;;24.30;99.90;;;;;;5053443;28;20500;-77
2023/08/02 09:37:52;;;;;;;2.03;1.47;;;24.40;99.90;;;;;;5052998;28;20405;-76
2023/08/02 09:40:20;;;;;;;2.03;1.20;;;24.10;99.90;;;;;;5054547;28;20441;-76
2023/08/02 09:42:45;;;;;;;1.10;1.00;;;24.10;99.90;;;;;;5051737;28;20244;-76
2023/08/02 09:45:11;;;;;;;5.63;1.50;;;24.10;99.90;;;;;;5053096;28;20417;-76
2023/08/02 09:47:37;;;;;;;5.60;1.60;;;24.10;99.90;;;;;;5053299;28;20836;-76
2023/08/02 09:50:05;;;;;;;2.63;1.47;;;23.50;99.90;;;;;;5052780;28;20244;-75
2023/08/02 09:52:32;;;;;;;2.20;1.60;;;24.00;99.90;;;;;;5053863;28;20182;-74
2023/08/02 09:54:58;;;;;;;1.73;1.63;;;23.90;99.90;;;;;;5036200;28;20421;-77
2023/08/02 09:57:26;;;;;;;1.53;1.10;;;24.00;99.90;;;;;;5052319;28;20425;-75
2023/08/02 09:59:53;;;;;;;3.23;1.50;;;23.80;99.90;;;;;;5056505;28;20182;-75
2023/08/02 10:02:24;;;;;;;5.43;1.60;;;23.90;99.90;;;;;;5052689;28;20457;-75
2023/08/02 10:04:55;;;;;;;1.80;1.23;;;24.10;99.90;;;;;;5052851;28;20746;-76
2023/08/02 10:07:23;;;;;;;2.03;1.33;;;24.10;99.90;;;;;;5054346;28;20887;-75
2023/08/02 10:09:52;;;;;;;4.07;1.40;;;23.90;99.90;;;;;;5050513;28;20834;-74
2023/08/02 10:12:18;;;;;;;1.70;1.60;;;24.10;99.90;;;;;;5072441;28;20436;-76
2023/08/02 10:14:46;;;;;;;4.30;1.87;;;23.90;99.90;;;;;;5075627;28;20400;-77
2023/08/02 10:17:13;;;;;;;1.60;1.23;;;23.60;99.90;;;;;;5076110;28;20493;-79
2023/08/02 10:19:39;;;;;;;2.63;1.57;;;23.50;99.90;;;;;;5055419;28;20678;-75
2023/08/02 10:22:04;;;;;;;3.47;1.80;;;23.90;99.90;;;;;;5073269;28;20462;-75
2023/08/02 10:24:30;;;;;;;2.90;1.70;;;23.80;99.90;;;;;;5073194;28;20166;-74
2023/08/02 10:26:58;;;;;;;3.23;1.53;;;23.90;99.90;;;;;;5065512;28;20586;-74
2023/08/02 10:29:28;;;;;;;1.60;1.37;;;23.70;99.90;;;;;;5072796;28;20458;-79
2023/08/02 10:31:55;;;;;;;3.23;2.13;;;24.30;99.90;;;;;;5072954;28;20475;-74
2023/08/02 10:34:36;;;;;;;2.50;1.63;;;24.20;99.90;;;;;;5074831;28;20411;-74
2023/08/02 10:37:02;;;;;;;2.20;2.00;;;23.90;99.90;;;;;;5065699;28;20261;-74
2023/08/02 10:39:46;;;;;;;2.60;1.87;;;24.00;99.90;;;;;;5051269;28;20440;-74
2023/08/02 10:42:13;;;;;;;3.03;1.57;;;23.40;99.90;;;;;;5050677;28;20961;-75
2023/08/02 10:44:57;;;;;;;3.40;1.60;;;23.30;99.90;;;;;;5059646;28;20900;-75
2023/08/02 10:47:26;;;;;;;1.60;1.27;;;23.80;99.90;;;;;;5053079;28;20419;-75
2023/08/02 10:49:53;;;;;;;1.93;1.43;;;23.70;99.90;;;;;;5052749;28;20418;-75
2023/08/02 10:52:28;;;;;;;1.80;1.37;;;23.80;99.90;;;;;;5048080;28;20841;-75
2023/08/02 10:55:13;;;;;;;2.53;1.20;;;23.50;99.90;;;;;;5049985;28;20476;-75
2023/08/02 10:58:05;;;;;;;2.93;1.53;;;23.60;99.90;;;;;;5068048;28;20464;-75
2023/08/02 11:00:31;;;;;;;3.77;1.50;;;23.30;99.90;;;;;;5033266;28;20431;-75
2023/08/02 11:02:57;;;;;;;2.93;1.50;;;23.50;99.90;;;;;;5051976;28;20454;-75
2023/08/02 11:05:40;;;;;;;1.40;1.30;;;23.80;99.90;;;;;;5051164;28;20432;-75
2023/08/02 11:08:07;;;;;;;1.97;1.30;;;23.60;99.90;;;;;;5046821;28;20195;-75
2023/08/02 11:10:45;;;;;;;5.03;1.47;;;23.50;99.90;;;;;;5036491;28;21061;-75
2023/08/02 11:13:11;;;;;;;2.97;1.93;;;23.60;99.90;;;;;;5068841;28;20480;-76
2023/08/02 11:15:36;;;;;;;2.90;1.63;;;23.70;99.90;;;;;;5070152;28;20411;-76
2023/08/02 11:18:03;;;;;;;4.13;1.57;;;23.50;99.90;;;;;;5060167;28;20212;-74
2023/08/02 11:20:32;;;;;;;1.50;1.40;;;23.40;99.90;;;;;;5070621;28;20194;-75
2023/08/02 11:22:58;;;;;;;2.00;1.80;;;23.20;99.90;;;;;;5059069;28;21196;-75
2023/08/02 11:25:23;;;;;;;2.40;1.50;;;23.20;99.90;;;;;;5044870;28;20526;-75
2023/08/02 11:28:02;;;;;;;2.57;2.07;;;23.20;99.90;;;;;;5045778;28;20462;-76
2023/08/02 11:30:28;;;;;;;2.30;1.80;;;23.00;99.90;;;;;;5046465;28;20177;-75
2023/08/02 11:32:54;;;;;;;3.13;1.97;;;22.70;99.90;;;;;;5045739;28;20444;-75
2023/08/02 11:35:20;;;;;;;2.57;1.60;;;22.80;99.90;;;;;;5051949;28;20206;-74
2023/08/02 11:37:46;;;;;;;4.50;2.30;;;23.00;99.90;;;;;;5048351;28;20173;-77
2023/08/02 11:40:12;;;;;;;2.40;1.53;;;22.90;99.90;;;;;;5050970;28;20427;-74
2023/08/02 11:42:50;;;;;;;3.97;1.83;;;23.00;99.90;;;;;;5061905;28;20452;-73
2023/08/02 11:45:31;;;;;;;2.53;2.07;;;22.90;99.90;;;;;;5050636;28;20514;-75
2023/08/02 11:47:57;;;;;;;2.63;2.10;;;23.00;99.90;;;;;;5051124;28;20455;-74
2023/08/02 11:50:28;;;;;;;4.60;2.17;;;23.00;99.90;;;;;;5070810;28;20467;-77
2023/08/02 11:53:06;;;;;;;2.03;1.80;;;22.90;99.90;;;;;;5051435;28;20546;-74
2023/08/02 11:55:35;;;;;;;4.30;2.10;;;22.90;99.90;;;;;;5051358;28;20428;-76
2023/08/02 11:58:03;;;;;;;1.80;1.70;;;22.90;99.90;;;;;;5051355;28;20432;-75
2023/08/02 12:00:29;;;;;;;4.13;2.17;;;22.90;99.90;;;;;;5051405;28;20429;-75
2023/08/02 12:03:10;;;;;;;2.40;2.07;;;23.20;99.90;;;;;;5051345;28;20428;-76
2023/08/02 12:05:36;;;;;;;4.73;2.13;;;23.30;99.90;;;;;;5051665;28;20197;-74
2023/08/02 12:08:17;;;;;;;2.90;1.63;;;23.20;99.90;;;;;;5049279;28;20915;-74
2023/08/02 12:10:43;;;;;;;3.90;1.87;;;23.30;99.90;;;;;;5049340;28;20175;-75
2023/08/02 12:13:16;;;;;;;3.80;1.97;;;23.30;99.90;;;;;;5058106;28;20441;-74
2023/08/02 12:16:00;;;;;;;3.70;2.40;;;23.40;99.90;;;;;;5068913;28;20850;-74
2023/08/02 12:18:26;;;;;;;2.93;2.17;;;23.50;99.90;;;;;;5051581;28;20419;-79
2023/08/02 12:20:52;;;;;;;4.23;2.70;;;23.50;99.90;;;;;;5050378;28;20581;-77
2023/08/02 12:23:33;;;;;;;4.33;2.87;;;23.70;99.90;;;;;;5051601;28;20986;-78
2023/08/02 12:25:59;;;;;;;4.10;2.23;;;23.80;99.90;;;;;;5051260;28;20542;-74
2023/08/02 12:28:24;;;;;;;2.70;2.10;;;23.90;99.90;;;;;;5050883;28;20547;-74
2023/08/02 12:31:03;;;;;;;3.80;2.40;;;23.80;99.90;;;;;;5049221;28;20660;-74
2023/08/02 12:33:31;;;;;;;2.87;2.33;;;23.70;99.90;;;;;;5049692;28;20174;-74
2023/08/02 12:35:57;;;;;;;4.73;2.23;;;23.80;99.90;;;;;;5048258;28;20422;-74
2023/08/02 12:38:28;;;;;;;2.90;2.37;;;23.80;99.90;;;;;;5053787;28;20401;-74
2023/08/02 12:40:55;;;;;;;2.10;1.77;;;23.70;99.90;;;;;;5055226;28;20162;-75
2023/08/02 12:43:20;;;;;;;2.43;1.83;;;23.80;99.90;;;;;;5054973;28;20506;-74
2023/08/02 12:45:46;;;;;;;2.47;2.27;;;23.60;99.90;;;;;;5055384;28;20407;-75
2023/08/02 12:48:12;;;;;;;4.57;2.43;;;23.40;99.90;;;;;;5048939;28;20197;-74